Time;durP1;ratioP1;P1;durP2;ratioP2;P2;SDS_P1;SDS_P2;PMS_P1;PMS_P2;Temp;Humidity;BMP_temperature;BMP_pressure;BME280_temperature;BME280_humidity;BME280_pressure;Samples;Min_cycle;Max_cycle;Signal;HPM_P1;HPM_P2
2020/12/22 00:01:14;;;;;;;13.85;8.57;;;5.30;99.90;;;;;;5089978;28;20349;-81
2020/12/22 00:03:40;;;;;;;15.30;10.32;;;5.30;99.90;;;;;;5087800;28;20044;-81
2020/12/22 00:06:06;;;;;;;17.10;8.70;;;5.20;99.90;;;;;;5088185;28;20036;-81
2020/12/22 00:08:32;;;;;;;19.83;10.27;;;5.20;99.90;;;;;;5088400;28;20035;-80
2020/12/22 00:10:58;;;;;;;13.95;8.88;;;5.20;99.90;;;;;;5071618;28;20387;-81
2020/12/22 00:13:23;;;;;;;21.90;9.50;;;5.20;99.90;;;;;;5088278;28;20024;-80
2020/12/22 00:15:49;;;;;;;19.33;9.55;;;5.10;99.90;;;;;;5088500;28;20466;-79
2020/12/22 00:18:16;;;;;;;12.70;9.18;;;5.00;99.90;;;;;;5088324;28;20035;-80
2020/12/22 00:20:42;;;;;;;16.63;8.70;;;5.00;99.90;;;;;;5088191;28;20374;-81
2020/12/22 00:23:08;;;;;;;19.33;9.88;;;5.00;99.90;;;;;;5087994;28;20050;-81
2020/12/22 00:25:44;;;;;;;13.85;9.73;;;5.00;99.90;;;;;;5089266;28;20037;-80
2020/12/22 00:28:11;;;;;;;19.33;10.43;;;4.90;99.90;;;;;;5089253;28;20063;-81
2020/12/22 00:30:37;;;;;;;16.33;9.88;;;4.90;99.90;;;;;;5071030;28;20536;-81
2020/12/22 00:33:04;;;;;;;14.48;9.27;;;4.90;99.90;;;;;;5087955;28;20031;-81
2020/12/22 00:35:30;;;;;;;24.02;10.32;;;4.90;99.90;;;;;;5088965;28;20043;-82
2020/12/22 00:37:56;;;;;;;24.08;11.90;;;4.90;99.90;;;;;;5089145;28;20016;-81
2020/12/22 00:40:22;;;;;;;27.08;12.43;;;4.90;99.90;;;;;;5070743;28;20397;-81
2020/12/22 00:42:47;;;;;;;24.25;11.60;;;4.80;99.90;;;;;;5089011;28;20031;-81
2020/12/22 00:45:13;;;;;;;21.17;10.00;;;4.80;99.90;;;;;;5087824;28;20035;-80
2020/12/22 00:47:39;;;;;;;21.05;9.95;;;4.80;99.90;;;;;;5070968;28;20028;-81
2020/12/22 00:50:04;;;;;;;18.45;9.75;;;4.80;99.90;;;;;;5088490;28;20035;-81
2020/12/22 00:52:30;;;;;;;15.77;9.05;;;4.80;99.90;;;;;;5087442;28;20096;-80
2020/12/22 00:54:56;;;;;;;16.30;8.80;;;4.80;99.90;;;;;;5088828;28;20021;-80
2020/12/22 00:57:21;;;;;;;16.48;9.93;;;4.80;99.90;;;;;;5087955;28;20481;-82
2020/12/22 00:59:47;;;;;;;21.33;9.18;;;4.80;99.90;;;;;;5088637;28;20024;-81
2020/12/22 01:02:13;;;;;;;17.52;8.10;;;4.80;99.90;;;;;;5087387;28;20524;-81
2020/12/22 01:04:38;;;;;;;18.13;8.88;;;4.90;99.90;;;;;;5087425;28;20048;-81
2020/12/22 01:07:04;;;;;;;23.13;9.63;;;4.80;99.90;;;;;;5087475;28;20550;-81
2020/12/22 01:09:30;;;;;;;20.45;8.60;;;4.80;99.90;;;;;;5087350;28;20077;-79
2020/12/22 01:11:55;;;;;;;21.05;9.35;;;4.80;99.90;;;;;;5087498;28;20019;-81
2020/12/22 01:14:21;;;;;;;15.10;7.60;;;4.70;99.90;;;;;;5087206;28;20540;-82
2020/12/22 01:16:47;;;;;;;18.35;7.90;;;4.70;99.90;;;;;;5087201;28;20028;-81
2020/12/22 01:19:13;;;;;;;15.05;8.18;;;4.70;99.90;;;;;;5087126;28;20081;-81
2020/12/22 01:21:38;;;;;;;15.80;7.70;;;4.60;99.90;;;;;;5088290;28;20054;-80
2020/12/22 01:24:04;;;;;;;19.48;9.32;;;4.60;99.90;;;;;;5069860;28;20156;-82
2020/12/22 01:26:30;;;;;;;17.98;8.13;;;4.60;99.90;;;;;;5086935;28;20032;-82
2020/12/22 01:28:56;;;;;;;19.73;7.95;;;4.60;99.90;;;;;;5070094;28;20035;-81
2020/12/22 01:31:29;;;;;;;25.55;8.05;;;4.50;99.90;;;;;;5086970;28;20092;-82
2020/12/22 01:33:56;;;;;;;20.23;8.15;;;4.60;99.90;;;;;;5087327;28;20391;-81
2020/12/22 01:36:22;;;;;;;13.93;7.93;;;4.60;99.90;;;;;;5087156;28;20482;-81
2020/12/22 01:38:48;;;;;;;18.55;7.63;;;4.60;99.90;;;;;;5086951;28;20030;-82
2020/12/22 01:41:15;;;;;;;13.65;6.75;;;4.50;99.90;;;;;;5087173;28;20082;-80
2020/12/22 01:43:41;;;;;;;17.92;6.32;;;4.50;99.90;;;;;;5086842;28;20032;-81
2020/12/22 01:46:07;;;;;;;12.02;5.95;;;4.50;99.90;;;;;;5087169;28;20378;-81
2020/12/22 01:48:34;;;;;;;14.48;6.55;;;4.50;99.90;;;;;;5088017;28;20049;-80
2020/12/22 01:51:00;;;;;;;16.83;7.35;;;4.50;99.90;;;;;;5086728;28;20032;-81
2020/12/22 01:53:26;;;;;;;14.18;7.40;;;4.50;99.90;;;;;;5086916;28;20028;-80
2020/12/22 01:55:52;;;;;;;18.20;7.35;;;4.40;99.90;;;;;;5087051;28;20028;-80
2020/12/22 01:58:18;;;;;;;16.83;8.60;;;4.40;99.90;;;;;;5086644;28;20035;-81
2020/12/22 02:00:43;;;;;;;18.90;8.57;;;4.40;99.90;;;;;;5069889;28;20062;-82
2020/12/22 02:03:10;;;;;;;14.98;8.10;;;4.40;99.90;;;;;;5069951;28;20028;-79
2020/12/22 02:05:39;;;;;;;16.15;9.13;;;4.40;99.90;;;;;;5086783;28;20077;-81
2020/12/22 02:08:05;;;;;;;15.48;9.02;;;4.40;99.90;;;;;;5088119;28;20386;-80
2020/12/22 02:10:31;;;;;;;15.88;8.25;;;4.40;99.90;;;;;;5088056;28;20078;-81
2020/12/22 02:12:58;;;;;;;16.98;7.78;;;4.40;99.90;;;;;;5088535;28;20074;-82
2020/12/22 02:15:24;;;;;;;16.85;9.32;;;4.40;99.90;;;;;;5087980;28;20052;-81
2020/12/22 02:17:50;;;;;;;13.85;7.50;;;4.30;99.90;;;;;;5088051;28;20323;-81
2020/12/22 02:20:16;;;;;;;19.58;7.40;;;4.30;99.90;;;;;;5069616;28;20042;-81
2020/12/22 02:22:42;;;;;;;17.88;7.75;;;4.30;99.90;;;;;;5086596;28;20024;-80
2020/12/22 02:25:17;;;;;;;18.20;7.40;;;4.30;99.90;;;;;;5086993;28;20036;-82
2020/12/22 02:27:43;;;;;;;23.20;7.30;;;4.30;99.90;;;;;;5089364;28;20051;-81
2020/12/22 02:30:09;;;;;;;13.25;7.93;;;4.30;99.90;;;;;;5091589;28;20077;-81
2020/12/22 02:32:35;;;;;;;17.58;8.55;;;4.30;99.90;;;;;;5091767;28;20059;-82
2020/12/22 02:35:02;;;;;;;18.52;7.75;;;4.30;99.90;;;;;;5090630;28;20060;-81
2020/12/22 02:37:28;;;;;;;20.38;7.95;;;4.30;99.90;;;;;;5090418;28;20020;-82
2020/12/22 02:39:54;;;;;;;14.68;8.98;;;4.30;99.90;;;;;;5090496;28;20028;-81
2020/12/22 02:42:19;;;;;;;16.08;7.50;;;4.30;99.90;;;;;;5073795;28;20039;-81
2020/12/22 02:44:45;;;;;;;16.83;7.65;;;4.30;99.90;;;;;;5090808;28;20111;-81
2020/12/22 02:47:13;;;;;;;15.23;7.03;;;4.20;99.90;;;;;;5090386;28;20165;-81
2020/12/22 02:49:40;;;;;;;13.10;7.10;;;4.30;99.90;;;;;;5090408;28;20024;-82
2020/12/22 02:52:06;;;;;;;14.38;6.80;;;4.20;99.90;;;;;;5090397;28;20028;-81
2020/12/22 02:54:32;;;;;;;12.50;6.85;;;4.20;99.90;;;;;;5090387;28;20031;-83
2020/12/22 02:56:58;;;;;;;13.80;6.38;;;4.20;99.90;;;;;;5073138;28;20118;-82
2020/12/22 02:59:23;;;;;;;13.50;7.10;;;4.20;99.90;;;;;;5090054;28;20131;-81
2020/12/22 03:01:49;;;;;;;13.98;7.05;;;4.20;99.90;;;;;;5089681;28;20028;-81
2020/12/22 03:04:15;;;;;;;18.63;6.80;;;4.10;99.90;;;;;;5090246;28;20028;-81
2020/12/22 03:06:40;;;;;;;16.65;6.75;;;4.10;99.90;;;;;;5089941;28;20039;-81
2020/12/22 03:09:08;;;;;;;16.80;6.85;;;4.10;99.90;;;;;;5089577;28;20093;-81
2020/12/22 03:11:34;;;;;;;15.23;6.10;;;4.10;99.90;;;;;;5072687;28;20028;-81
2020/12/22 03:14:00;;;;;;;16.20;6.93;;;4.10;99.90;;;;;;5089491;28;20386;-81
2020/12/22 03:16:26;;;;;;;11.13;6.28;;;4.10;99.90;;;;;;5089489;28;20031;-81
2020/12/22 03:18:52;;;;;;;16.40;5.50;;;4.10;99.90;;;;;;5089361;28;20077;-81
2020/12/22 03:21:17;;;;;;;14.68;7.10;;;4.10;99.90;;;;;;5072892;28;20059;-82
2020/12/22 03:23:43;;;;;;;17.42;6.68;;;4.10;99.90;;;;;;5089234;28;20048;-81
2020/12/22 03:26:09;;;;;;;11.10;5.88;;;4.10;99.90;;;;;;5089481;28;20375;-82
2020/12/22 03:28:35;;;;;;;12.82;6.20;;;4.10;99.90;;;;;;5089136;28;20035;-81
2020/12/22 03:31:01;;;;;;;17.17;5.95;;;4.00;99.90;;;;;;5089503;28;20111;-81
2020/12/22 03:33:27;;;;;;;13.88;6.53;;;4.00;99.90;;;;;;5090416;28;20107;-80
2020/12/22 03:35:52;;;;;;;15.20;6.85;;;4.00;99.90;;;;;;5089452;28;20071;-82
2020/12/22 03:38:18;;;;;;;16.10;7.60;;;4.00;99.90;;;;;;5088853;28;20028;-80
2020/12/22 03:40:44;;;;;;;14.63;6.70;;;4.00;99.90;;;;;;5088336;28;20028;-81
2020/12/22 03:43:10;;;;;;;19.60;8.10;;;4.00;99.90;;;;;;5071731;28;20058;-82
2020/12/22 03:45:41;;;;;;;15.20;7.10;;;4.00;99.90;;;;;;5072042;28;20028;-81
2020/12/22 03:48:07;;;;;;;12.50;6.50;;;4.00;99.90;;;;;;5090120;28;20038;-81
2020/12/22 03:50:32;;;;;;;14.93;7.30;;;4.00;99.90;;;;;;5088985;28;20032;-81
2020/12/22 03:53:02;;;;;;;15.55;6.68;;;4.00;99.90;;;;;;5088798;28;20032;-80
2020/12/22 03:55:28;;;;;;;18.42;6.93;;;4.00;99.90;;;;;;5088767;28;20441;-80
2020/12/22 03:57:53;;;;;;;22.02;7.15;;;4.00;99.90;;;;;;5088867;28;20119;-82
2020/12/22 04:00:19;;;;;;;16.98;7.22;;;4.00;99.90;;;;;;5088580;28;20044;-82
2020/12/22 04:02:45;;;;;;;14.75;6.55;;;4.00;99.90;;;;;;5088575;28;20115;-80
2020/12/22 04:05:12;;;;;;;15.75;6.78;;;4.00;99.90;;;;;;5090015;28;20471;-80
2020/12/22 04:07:38;;;;;;;17.17;6.88;;;4.00;99.90;;;;;;5088481;28;20390;-81
2020/12/22 04:10:04;;;;;;;20.17;7.13;;;4.00;99.90;;;;;;5089914;28;20024;-79
2020/12/22 04:12:30;;;;;;;18.35;6.88;;;4.00;99.90;;;;;;5088645;28;20032;-81
2020/12/22 04:14:56;;;;;;;17.00;6.10;;;4.00;99.90;;;;;;5088497;28;20604;-81
2020/12/22 04:17:22;;;;;;;20.95;6.75;;;4.00;99.90;;;;;;5088451;28;20195;-81
2020/12/22 04:19:48;;;;;;;17.70;6.68;;;4.00;99.90;;;;;;5088211;28;20023;-81
2020/12/22 04:22:13;;;;;;;15.73;6.18;;;4.00;99.90;;;;;;5089794;28;20539;-81
2020/12/22 04:24:39;;;;;;;13.85;6.82;;;4.00;99.90;;;;;;5088109;28;20052;-81
2020/12/22 04:27:05;;;;;;;16.38;6.93;;;4.00;99.90;;;;;;5088079;28;20038;-81
2020/12/22 04:29:30;;;;;;;19.20;6.82;;;4.00;99.90;;;;;;5088152;28;20184;-81
2020/12/22 04:31:56;;;;;;;15.40;5.82;;;4.00;99.90;;;;;;5088240;28;20032;-81
2020/12/22 04:34:23;;;;;;;15.57;5.90;;;4.00;99.90;;;;;;5087952;28;20036;-80
2020/12/22 04:36:48;;;;;;;11.38;5.75;;;4.00;99.90;;;;;;5087872;28;20043;-80
2020/12/22 04:39:14;;;;;;;12.20;6.70;;;4.10;99.90;;;;;;5087717;28;20028;-80
2020/12/22 04:41:47;;;;;;;13.05;4.93;;;4.10;99.90;;;;;;5087764;28;20115;-81
2020/12/22 04:44:13;;;;;;;13.55;5.88;;;4.20;99.90;;;;;;5088947;28;20077;-82
2020/12/22 04:46:39;;;;;;;16.63;5.32;;;4.30;99.90;;;;;;5087781;28;20374;-81
2020/12/22 04:49:09;;;;;;;13.27;5.57;;;4.40;99.90;;;;;;5087421;28;20097;-81
2020/12/22 04:51:38;;;;;;;16.48;4.88;;;4.50;99.90;;;;;;5087368;28;20020;-80
2020/12/22 04:54:05;;;;;;;9.95;5.65;;;4.60;99.90;;;;;;5087286;28;20470;-80
2020/12/22 04:56:31;;;;;;;8.13;4.60;;;4.60;99.90;;;;;;5087472;28;20048;-81
2020/12/22 04:58:57;;;;;;;13.90;4.90;;;4.60;99.90;;;;;;5087101;28;20075;-82
2020/12/22 05:01:23;;;;;;;13.20;4.75;;;4.70;99.90;;;;;;5087499;28;20077;-81
2020/12/22 05:03:48;;;;;;;10.52;5.25;;;4.70;99.90;;;;;;5087847;28;20036;-80
2020/12/22 05:06:14;;;;;;;16.52;5.03;;;4.70;99.90;;;;;;5087740;28;20295;-80
2020/12/22 05:08:40;;;;;;;19.65;5.65;;;4.70;99.90;;;;;;5087659;28;20039;-81
2020/12/22 05:11:15;;;;;;;8.20;4.97;;;4.60;99.90;;;;;;5087482;28;20036;-81
2020/12/22 05:13:41;;;;;;;15.25;5.07;;;4.70;99.90;;;;;;5087736;28;20036;-80
2020/12/22 05:16:10;;;;;;;15.77;5.20;;;4.70;99.90;;;;;;5087745;28;20043;-80
2020/12/22 05:18:35;;;;;;;14.30;5.63;;;4.70;99.90;;;;;;5088755;28;20023;-81
2020/12/22 05:21:01;;;;;;;9.60;4.90;;;4.60;99.90;;;;;;5088786;28;20466;-81
2020/12/22 05:23:27;;;;;;;12.45;5.25;;;4.60;99.90;;;;;;5088412;28;20046;-80
2020/12/22 05:25:53;;;;;;;13.90;5.70;;;4.60;99.90;;;;;;5088701;28;20017;-81
2020/12/22 05:28:22;;;;;;;16.30;6.10;;;4.60;99.90;;;;;;5088531;28;20031;-82
2020/12/22 05:30:51;;;;;;;11.70;5.80;;;4.60;99.90;;;;;;5088686;28;20020;-81
2020/12/22 05:33:17;;;;;;;18.90;5.37;;;4.60;99.90;;;;;;5087307;28;20051;-81
2020/12/22 05:35:48;;;;;;;10.32;4.75;;;4.60;99.90;;;;;;5070488;28;20290;-81
2020/12/22 05:38:15;;;;;;;12.43;4.85;;;4.60;99.90;;;;;;5088768;28;20024;-81
2020/12/22 05:40:42;;;;;;;12.05;4.60;;;4.60;99.90;;;;;;5088181;28;20039;-79
2020/12/22 05:43:09;;;;;;;11.48;4.47;;;4.60;99.90;;;;;;5087504;28;20077;-81
2020/12/22 05:45:36;;;;;;;12.13;4.70;;;4.60;99.90;;;;;;5087112;28;20081;-80
2020/12/22 05:48:03;;;;;;;10.07;4.15;;;4.60;99.90;;;;;;5087199;28;20031;-80
2020/12/22 05:50:29;;;;;;;10.68;5.25;;;4.70;99.90;;;;;;5087276;28;20409;-80
2020/12/22 05:52:57;;;;;;;9.68;4.40;;;4.70;99.90;;;;;;5087010;28;20505;-79
2020/12/22 05:55:31;;;;;;;9.82;5.07;;;4.70;99.90;;;;;;5087121;28;20222;-81
2020/12/22 05:58:13;;;;;;;11.30;4.55;;;4.70;99.90;;;;;;5088259;28;20486;-80
2020/12/22 06:00:41;;;;;;;13.82;4.93;;;4.70;99.90;;;;;;5069987;28;20093;-79
2020/12/22 06:03:11;;;;;;;16.05;5.35;;;4.70;99.90;;;;;;5089185;28;20024;-80
2020/12/22 06:05:46;;;;;;;14.15;5.25;;;4.70;99.90;;;;;;5091400;28;20032;-81
2020/12/22 06:08:16;;;;;;;14.38;5.68;;;4.80;99.90;;;;;;5092452;28;20032;-80
2020/12/22 06:10:42;;;;;;;10.80;4.63;;;4.80;99.90;;;;;;5091415;28;20030;-80
2020/12/22 06:13:09;;;;;;;9.85;4.78;;;4.80;99.90;;;;;;5090983;28;20084;-80
2020/12/22 06:15:35;;;;;;;7.35;4.80;;;4.80;99.90;;;;;;5090676;28;20072;-81
2020/12/22 06:18:03;;;;;;;12.52;5.75;;;4.90;99.90;;;;;;5090898;28;20495;-81
2020/12/22 06:20:30;;;;;;;10.52;4.68;;;5.00;99.90;;;;;;5090619;28;20111;-81
2020/12/22 06:23:04;;;;;;;13.95;5.70;;;5.00;99.90;;;;;;5090635;28;20048;-80
2020/12/22 06:25:30;;;;;;;14.20;4.75;;;5.10;99.90;;;;;;5090563;28;20138;-81
2020/12/22 06:27:57;;;;;;;10.95;4.78;;;5.10;99.90;;;;;;5090484;28;20115;-81
2020/12/22 06:30:34;;;;;;;17.02;4.85;;;5.20;99.90;;;;;;5091864;28;20031;-81
2020/12/22 06:33:34;;;;;;;15.25;4.47;;;5.20;99.90;;;;;;5090453;28;20054;-80
2020/12/22 06:36:01;;;;;;;10.48;3.47;;;5.30;99.90;;;;;;5047796;28;20039;-81
2020/12/22 06:38:48;;;;;;;10.68;3.70;;;5.30;99.90;;;;;;5091641;28;20355;-80
2020/12/22 06:41:35;;;;;;;16.75;5.00;;;5.30;99.90;;;;;;5090226;28;20379;-79
2020/12/22 06:44:17;;;;;;;13.82;3.65;;;5.40;99.90;;;;;;5091635;28;20527;-79
2020/12/22 06:46:48;;;;;;;11.38;4.07;;;5.40;99.90;;;;;;5091681;28;20028;-81
2020/12/22 06:49:14;;;;;;;13.25;3.60;;;5.40;99.90;;;;;;5090134;28;20020;-80
2020/12/22 06:51:43;;;;;;;9.57;3.90;;;5.40;99.90;;;;;;5089966;28;20059;-80
2020/12/22 06:54:15;;;;;;;12.17;4.17;;;5.30;99.90;;;;;;5089687;28;20024;-80
2020/12/22 06:56:47;;;;;;;14.52;3.70;;;5.40;99.90;;;;;;5091170;28;20341;-81
2020/12/22 06:59:33;;;;;;;10.73;3.35;;;5.40;99.90;;;;;;5091126;28;20113;-80
2020/12/22 07:02:00;;;;;;;14.70;4.25;;;5.40;99.90;;;;;;5089792;28;20023;-80
2020/12/22 07:04:25;;;;;;;8.25;3.45;;;5.30;99.80;;;;;;5091353;28;20028;-81
2020/12/22 07:07:04;;;;;;;18.20;4.68;;;5.30;99.80;;;;;;5089654;28;20039;-80
2020/12/22 07:09:34;;;;;;;9.07;3.80;;;5.20;99.70;;;;;;5091100;28;20035;-81
2020/12/22 07:12:09;;;;;;;13.38;4.38;;;5.20;99.70;;;;;;5089888;28;20055;-80
2020/12/22 07:14:39;;;;;;;10.35;4.32;;;5.20;99.70;;;;;;5090844;28;20074;-81
2020/12/22 07:17:06;;;;;;;11.73;4.07;;;5.10;99.70;;;;;;5090931;28;20102;-80
2020/12/22 07:19:33;;;;;;;10.80;5.28;;;5.10;99.70;;;;;;5089488;28;20070;-80
2020/12/22 07:22:07;;;;;;;16.48;5.22;;;5.10;99.70;;;;;;5089661;28;20032;-80
2020/12/22 07:24:35;;;;;;;20.52;4.25;;;5.00;99.70;;;;;;5090711;28;20044;-81
2020/12/22 07:27:01;;;;;;;13.18;4.47;;;5.00;99.80;;;;;;5089249;28;20043;-81
2020/12/22 07:29:27;;;;;;;14.13;4.10;;;5.00;99.80;;;;;;5089074;28;20478;-80
2020/12/22 07:31:52;;;;;;;9.95;4.43;;;5.00;99.80;;;;;;5089682;28;20032;-80
2020/12/22 07:34:19;;;;;;;15.07;5.10;;;5.00;99.80;;;;;;5089473;28;20039;-80
2020/12/22 07:36:46;;;;;;;15.55;6.47;;;4.90;99.70;;;;;;5089738;28;20028;-81
2020/12/22 07:39:16;;;;;;;12.38;6.13;;;4.90;99.80;;;;;;5090075;28;20039;-81
2020/12/22 07:41:42;;;;;;;13.77;6.28;;;4.90;99.80;;;;;;5090204;28;20386;-80
2020/12/22 07:44:09;;;;;;;16.58;6.40;;;4.90;99.80;;;;;;5089108;28;20032;-80
2020/12/22 07:46:35;;;;;;;14.95;6.57;;;4.90;99.80;;;;;;5088978;28;20020;-80
2020/12/22 07:49:05;;;;;;;12.70;6.43;;;4.90;99.80;;;;;;5089724;28;20020;-70
2020/12/22 07:51:31;;;;;;;21.85;6.03;;;4.90;99.80;;;;;;5090106;28;20024;-81
2020/12/22 07:54:04;;;;;;;14.23;5.28;;;4.90;99.80;;;;;;5071937;28;20039;-81
2020/12/22 07:56:35;;;;;;;19.75;5.45;;;4.80;99.70;;;;;;5088549;28;20047;-81
2020/12/22 07:59:06;;;;;;;18.42;4.53;;;4.80;99.70;;;;;;5088693;28;20051;-81
2020/12/22 08:01:43;;;;;;;13.10;4.03;;;4.80;99.70;;;;;;5088516;28;20020;-81
2020/12/22 08:04:18;;;;;;;11.05;3.60;;;4.80;99.70;;;;;;5090191;28;20031;-81
2020/12/22 08:07:07;;;;;;;15.15;3.67;;;4.70;99.70;;;;;;5088495;28;20031;-80
2020/12/22 08:09:37;;;;;;;15.07;4.13;;;4.70;99.60;;;;;;5090071;28;20035;-81
2020/12/22 08:12:05;;;;;;;20.48;3.92;;;4.60;99.80;;;;;;5088208;28;20474;-81
2020/12/22 08:14:32;;;;;;;12.95;4.57;;;4.60;99.60;;;;;;5088358;28;20028;-80
2020/12/22 08:17:01;;;;;;;13.93;4.78;;;4.50;99.60;;;;;;5088428;28;20467;-80
2020/12/22 08:19:30;;;;;;;11.30;4.53;;;4.50;99.60;;;;;;5089931;28;20094;-80
2020/12/22 08:21:57;;;;;;;12.18;3.28;;;4.40;99.60;;;;;;5088967;28;20723;-81
2020/12/22 08:24:23;;;;;;;13.35;4.63;;;4.40;99.60;;;;;;5088441;28;20410;-81
2020/12/22 08:26:51;;;;;;;9.57;3.97;;;4.30;99.50;;;;;;5087701;28;20020;-82
2020/12/22 08:29:17;;;;;;;10.15;3.92;;;4.30;99.80;;;;;;5089270;28;20470;-81
2020/12/22 08:31:44;;;;;;;15.48;4.65;;;4.20;99.70;;;;;;5088228;28;20039;-81
2020/12/22 08:34:17;;;;;;;12.63;4.32;;;4.20;99.80;;;;;;5088136;28;20031;-81
2020/12/22 08:36:45;;;;;;;24.10;4.80;;;4.20;99.90;;;;;;5088835;28;20016;-81
2020/12/22 08:39:22;;;;;;;16.88;5.80;;;4.20;99.90;;;;;;5088917;28;20036;-81
2020/12/22 08:41:54;;;;;;;12.45;4.68;;;4.20;99.90;;;;;;5090280;28;20036;-81
2020/12/22 08:44:21;;;;;;;14.32;4.35;;;4.10;99.90;;;;;;5088911;28;20475;-81
2020/12/22 08:46:47;;;;;;;20.70;4.85;;;4.10;99.90;;;;;;5088756;28;20134;-80
2020/12/22 08:49:13;;;;;;;12.15;5.40;;;4.10;99.90;;;;;;5088854;28;20020;-80
2020/12/22 08:51:39;;;;;;;14.95;5.35;;;4.10;99.90;;;;;;5090440;28;20043;-80
2020/12/22 08:54:05;;;;;;;15.55;6.07;;;4.10;99.90;;;;;;5088672;28;20050;-81
2020/12/22 08:56:32;;;;;;;17.40;5.88;;;4.10;99.90;;;;;;5072153;28;20032;-80
2020/12/22 08:59:00;;;;;;;15.48;6.22;;;4.10;99.90;;;;;;5070690;28;20443;-81
2020/12/22 09:01:41;;;;;;;16.67;6.88;;;4.00;99.90;;;;;;5084481;28;20024;-80
2020/12/22 09:04:08;;;;;;;24.92;7.72;;;4.00;99.90;;;;;;5088007;28;20020;-81
2020/12/22 09:06:41;;;;;;;18.13;8.38;;;4.10;99.90;;;;;;5086654;28;20052;-81
2020/12/22 09:09:22;;;;;;;22.63;11.77;;;4.10;99.90;;;;;;5077311;28;20020;-79
2020/12/22 09:11:48;;;;;;;12.32;5.93;;;4.20;99.90;;;;;;5085732;28;20024;-81
2020/12/22 09:14:14;;;;;;;27.67;7.30;;;4.20;99.90;;;;;;5071418;28;20054;-81
2020/12/22 09:16:55;;;;;;;51.08;16.60;;;4.30;99.90;;;;;;5088681;28;20444;-81
2020/12/22 09:19:39;;;;;;;25.48;12.65;;;4.30;99.90;;;;;;5069290;28;20411;-79
2020/12/22 09:22:04;;;;;;;26.98;10.35;;;4.40;99.90;;;;;;5083074;28;20058;-81
2020/12/22 09:24:33;;;;;;;31.63;13.00;;;4.50;99.90;;;;;;5071131;28;20060;-82
2020/12/22 09:27:05;;;;;;;41.75;14.70;;;4.60;99.90;;;;;;5090265;28;20513;-79
2020/12/22 09:29:31;;;;;;;30.73;12.18;;;4.70;99.90;;;;;;5086213;28;20035;-81
2020/12/22 09:31:59;;;;;;;34.45;14.07;;;4.80;99.90;;;;;;5086025;28;20381;-81
2020/12/22 09:34:26;;;;;;;22.75;7.88;;;4.80;99.90;;;;;;5086692;28;20039;-81
2020/12/22 09:36:56;;;;;;;31.17;7.82;;;4.90;99.90;;;;;;5088720;28;20414;-81
2020/12/22 09:39:23;;;;;;;18.85;6.07;;;4.90;99.90;;;;;;5070402;28;20488;-82
2020/12/22 09:41:49;;;;;;;16.10;5.13;;;5.00;99.90;;;;;;5087082;28;20024;-80
2020/12/22 09:44:15;;;;;;;17.05;6.70;;;5.00;99.90;;;;;;5086821;28;20030;-82
2020/12/22 09:46:41;;;;;;;22.40;7.78;;;5.10;99.90;;;;;;5086608;28;20028;-81
2020/12/22 09:49:07;;;;;;;20.42;7.93;;;5.10;99.90;;;;;;5087046;28;20443;-82
2020/12/22 09:51:32;;;;;;;21.77;9.00;;;5.10;99.90;;;;;;5087211;28;20036;-81
2020/12/22 09:53:58;;;;;;;19.80;10.20;;;5.20;99.90;;;;;;5086842;28;20153;-80
2020/12/22 09:56:24;;;;;;;21.35;8.57;;;5.30;99.90;;;;;;5069226;28;20024;-81
2020/12/22 09:58:50;;;;;;;19.40;6.57;;;5.50;99.90;;;;;;5084350;28;20027;-80
2020/12/22 10:01:23;;;;;;;32.42;8.68;;;5.60;99.90;;;;;;5067628;28;20478;-81
2020/12/22 10:03:49;;;;;;;24.10;11.60;;;5.70;99.90;;;;;;5069987;28;20055;-80
2020/12/22 10:06:16;;;;;;;29.33;11.80;;;5.90;99.90;;;;;;5088041;28;20031;-81
2020/12/22 10:08:42;;;;;;;27.45;11.68;;;6.10;99.90;;;;;;5071263;28;20505;-81
2020/12/22 10:11:08;;;;;;;14.40;8.13;;;6.40;99.90;;;;;;5070889;28;20028;-81
2020/12/22 10:13:33;;;;;;;21.88;9.02;;;6.60;99.90;;;;;;5088689;28;20032;-81
2020/12/22 10:16:00;;;;;;;32.88;7.90;;;6.80;99.90;;;;;;5088104;28;20024;-81
2020/12/22 10:18:26;;;;;;;19.63;6.22;;;7.00;99.80;;;;;;5088726;28;20032;-79
2020/12/22 10:20:55;;;;;;;27.63;7.70;;;7.20;99.60;;;;;;5070220;28;20092;-79
2020/12/22 10:23:21;;;;;;;19.08;8.13;;;7.40;99.60;;;;;;5087293;28;20402;-80
2020/12/22 10:25:46;;;;;;;19.80;8.93;;;7.60;99.60;;;;;;5070772;28;20032;-80
2020/12/22 10:28:12;;;;;;;30.77;14.90;;;7.80;99.80;;;;;;5088125;28;20413;-79
2020/12/22 10:30:38;;;;;;;28.77;15.10;;;8.20;99.90;;;;;;5088103;28;20112;-79
2020/12/22 10:33:03;;;;;;;21.27;11.45;;;8.60;99.90;;;;;;5087670;28;20032;-81
2020/12/22 10:35:29;;;;;;;29.10;8.60;;;9.50;99.90;;;;;;5071263;28;20036;-81
2020/12/22 10:37:55;;;;;;;10.70;7.13;;;10.30;99.90;;;;;;5087821;28;20020;-81
2020/12/22 10:40:20;;;;;;;14.52;6.32;;;10.80;99.40;;;;;;5088632;28;20498;-80
2020/12/22 10:42:46;;;;;;;9.80;5.47;;;11.30;99.20;;;;;;5096639;28;20028;-81
2020/12/22 10:45:12;;;;;;;16.02;6.50;;;11.80;98.80;;;;;;5071531;28;20127;-82
2020/12/22 10:47:37;;;;;;;13.13;7.50;;;12.50;98.60;;;;;;5087926;28;20409;-82
2020/12/22 10:50:03;;;;;;;12.00;7.72;;;13.10;98.00;;;;;;5073800;28;20038;-80
2020/12/22 10:52:29;;;;;;;17.83;9.02;;;13.70;97.20;;;;;;5090930;28;20032;-78
2020/12/22 10:54:58;;;;;;;13.43;6.20;;;14.30;96.30;;;;;;5091839;28;20028;-79
2020/12/22 10:57:23;;;;;;;9.03;4.17;;;14.80;95.20;;;;;;5090316;28;20086;-68
2020/12/22 10:59:49;;;;;;;10.15;4.07;;;15.20;94.20;;;;;;5092786;28;20433;-80
2020/12/22 11:02:15;;;;;;;15.50;6.53;;;15.20;92.70;;;;;;5092101;28;20024;-81
2020/12/22 11:04:42;;;;;;;26.25;12.18;;;14.90;91.50;;;;;;5074849;28;20028;-78
2020/12/22 11:07:16;;;;;;;14.32;7.97;;;14.40;90.60;;;;;;5074934;28;20094;-82
2020/12/22 11:09:44;;;;;;;13.70;5.65;;;13.80;90.60;;;;;;5077195;28;20028;-80
2020/12/22 11:12:10;;;;;;;16.50;6.25;;;13.20;90.60;;;;;;5076210;28;20119;-81
2020/12/22 11:14:36;;;;;;;14.00;5.57;;;12.70;90.60;;;;;;5093197;28;20566;-82
2020/12/22 11:17:02;;;;;;;16.00;5.93;;;12.20;90.90;;;;;;5092118;28;20062;-81
2020/12/22 11:19:28;;;;;;;14.52;7.28;;;11.80;91.10;;;;;;5092053;28;20028;-83
2020/12/22 11:21:54;;;;;;;15.57;7.00;;;11.50;91.30;;;;;;5093615;28;20020;-83
2020/12/22 11:24:20;;;;;;;17.95;7.45;;;11.20;91.50;;;;;;5075558;28;20078;-81
2020/12/22 11:26:46;;;;;;;22.50;7.97;;;11.00;91.90;;;;;;5074948;28;20070;-80
2020/12/22 11:29:12;;;;;;;19.00;8.18;;;11.00;92.30;;;;;;5092221;28;20024;-80
2020/12/22 11:31:38;;;;;;;13.02;6.90;;;11.00;92.50;;;;;;5093123;28;20060;-80
2020/12/22 11:34:03;;;;;;;21.60;7.70;;;11.00;92.70;;;;;;5092889;28;20024;-82
2020/12/22 11:36:29;;;;;;;15.43;6.35;;;11.10;92.70;;;;;;5091601;28;20034;-80
2020/12/22 11:38:55;;;;;;;13.10;6.05;;;11.30;92.80;;;;;;5093255;28;20069;-80
2020/12/22 11:41:25;;;;;;;9.23;4.70;;;11.40;92.60;;;;;;5095012;28;20351;-83
2020/12/22 11:43:51;;;;;;;8.07;4.03;;;11.50;92.20;;;;;;5093160;28;20032;-79
2020/12/22 11:46:17;;;;;;;12.57;5.50;;;11.70;92.40;;;;;;5091325;28;20028;-84
2020/12/22 11:48:42;;;;;;;22.23;7.93;;;11.90;92.40;;;;;;5091463;28;20493;-82
2020/12/22 11:51:08;;;;;;;17.75;7.60;;;12.20;92.60;;;;;;5092257;28;20035;-81
2020/12/22 11:53:34;;;;;;;14.50;7.35;;;12.60;92.80;;;;;;5091264;28;20500;-82
2020/12/22 11:56:00;;;;;;;16.25;7.40;;;13.20;93.10;;;;;;5092114;28;20034;-81
2020/12/22 11:58:25;;;;;;;17.85;7.93;;;13.90;93.10;;;;;;5091692;28;20028;-85
2020/12/22 12:00:51;;;;;;;20.95;8.35;;;14.60;92.70;;;;;;5091793;28;20031;-81
2020/12/22 12:03:17;;;;;;;11.60;5.63;;;15.00;91.50;;;;;;5089828;28;20028;-82
2020/12/22 12:05:43;;;;;;;10.30;5.57;;;15.00;90.20;;;;;;5088871;28;20462;-82
2020/12/22 12:08:09;;;;;;;14.23;6.00;;;14.80;88.90;;;;;;5090766;28;20492;-80
2020/12/22 12:10:34;;;;;;;14.75;7.22;;;14.40;87.80;;;;;;5089558;28;20043;-81
2020/12/22 12:13:00;;;;;;;16.35;7.68;;;14.10;87.70;;;;;;5090611;28;20668;-79
2020/12/22 12:15:26;;;;;;;13.98;6.78;;;13.80;87.90;;;;;;5091469;28;20086;-82
2020/12/22 12:17:52;;;;;;;26.13;9.70;;;13.40;87.90;;;;;;5091734;28;20428;-80
2020/12/22 12:20:17;;;;;;;19.08;8.40;;;13.10;88.40;;;;;;5091253;28;20028;-79
2020/12/22 12:22:43;;;;;;;17.52;5.97;;;12.80;88.70;;;;;;5092685;28;20705;-79
2020/12/22 12:25:09;;;;;;;10.38;5.35;;;12.60;89.00;;;;;;5091450;28;20044;-78
2020/12/22 12:27:34;;;;;;;10.65;5.32;;;12.40;89.30;;;;;;5090577;28;20047;-80
2020/12/22 12:30:00;;;;;;;17.48;9.15;;;12.30;89.90;;;;;;5089895;28;20497;-79
2020/12/22 12:32:30;;;;;;;14.70;6.15;;;12.20;90.10;;;;;;5073355;28;20132;-82
2020/12/22 12:34:59;;;;;;;16.63;4.70;;;12.00;90.10;;;;;;5092376;28;20020;-80
2020/12/22 12:37:28;;;;;;;12.18;4.82;;;12.00;90.20;;;;;;5092420;28;20028;-81
2020/12/22 12:39:53;;;;;;;14.10;6.33;;;11.80;90.20;;;;;;5091505;28;20338;-81
2020/12/22 12:42:19;;;;;;;12.50;5.57;;;11.80;90.30;;;;;;5090619;28;20035;-81
2020/12/22 12:44:45;;;;;;;11.45;4.97;;;11.70;90.50;;;;;;5089820;28;20117;-81
2020/12/22 12:47:11;;;;;;;13.43;4.82;;;11.60;90.70;;;;;;5072770;28;20042;-80